RJNO(METAR)
03/23 14:00
RJNO 230500Z 21005KT 9999 FEW025 SCT040 OVCXXX 11/03 Q1016 RMK
A3003=
戻る
トップページへ戻る
IMOC Co,.Ltd.